createdAt,value
2023-04-26T00:00:31.569Z,11.55
2023-04-26T00:01:05.724Z,6.55
2023-04-26T00:01:39.197Z,9.43
2023-04-26T00:02:13.217Z,9.20
2023-04-26T00:02:46.926Z,6.80
2023-04-26T00:03:21.138Z,7.57
2023-04-26T00:03:54.820Z,7.50
2023-04-26T00:04:29.725Z,5.75
2023-04-26T00:05:04.654Z,6.38
2023-04-26T00:05:38.497Z,5.90
2023-04-26T00:06:14.510Z,5.57
2023-04-26T00:06:49.746Z,6.15
2023-04-26T00:07:25.273Z,8.80
2023-04-26T00:07:58.968Z,5.68
2023-04-26T00:08:32.352Z,6.28
2023-04-26T00:09:05.928Z,6.33
2023-04-26T00:09:42.083Z,6.22
2023-04-26T00:10:15.567Z,5.47
2023-04-26T00:10:48.738Z,6.63
2023-04-26T00:11:22.121Z,5.60
2023-04-26T00:11:55.199Z,6.10
2023-04-26T00:12:28.379Z,6.05
2023-04-26T00:13:01.572Z,5.97
2023-04-26T00:13:35.036Z,6.18
2023-04-26T00:14:08.224Z,5.78
2023-04-26T00:14:41.502Z,5.90
2023-04-26T00:15:14.683Z,5.82
2023-04-26T00:15:47.955Z,5.97
2023-04-26T00:16:21.489Z,6.10
2023-04-26T00:16:54.517Z,5.82
2023-04-26T00:17:27.713Z,5.32
2023-04-26T00:18:00.612Z,6.03
2023-04-26T00:18:34.254Z,4.97
2023-04-26T00:19:07.745Z,5.53
2023-04-26T00:19:41.433Z,5.75
2023-04-26T00:20:14.716Z,5.63
2023-04-26T00:20:48.095Z,5.57
2023-04-26T00:21:21.369Z,5.82
2023-04-26T00:21:54.547Z,6.55
2023-04-26T00:22:28.544Z,6.00
2023-04-26T00:23:01.719Z,5.38
2023-04-26T00:23:37.061Z,5.50
2023-04-26T00:24:10.483Z,5.65
2023-04-26T00:24:44.024Z,5.80
2023-04-26T00:25:18.122Z,5.85
2023-04-26T00:25:51.508Z,6.10
2023-04-26T00:26:24.590Z,5.78
2023-04-26T00:26:57.656Z,5.07
2023-04-26T00:27:30.732Z,4.78
2023-04-26T00:28:04.360Z,4.68
2023-04-26T00:28:37.903Z,4.68
2023-04-26T00:29:11.085Z,4.90
2023-04-26T00:29:45.799Z,4.95
2023-04-26T00:30:18.978Z,4.57
2023-04-26T00:30:52.562Z,4.93
2023-04-26T00:31:26.093Z,5.00
2023-04-26T00:31:59.167Z,4.68
2023-04-26T00:32:32.534Z,4.28
2023-04-26T00:33:05.824Z,5.30
2023-04-26T00:33:39.172Z,4.70
2023-04-26T00:34:12.244Z,4.72
2023-04-26T00:34:45.427Z,5.28
2023-04-26T00:35:18.601Z,5.32
2023-04-26T00:35:52.001Z,5.10
2023-04-26T00:36:25.155Z,5.05
2023-04-26T00:36:58.953Z,5.13
2023-04-26T00:37:32.130Z,4.65
2023-04-26T00:38:05.514Z,4.75
2023-04-26T00:38:38.584Z,5.82
2023-04-26T00:39:11.868Z,5.68
2023-04-26T00:39:44.954Z,4.80
2023-04-26T00:40:18.220Z,5.43
2023-04-26T00:40:51.418Z,5.15
2023-04-26T00:41:25.420Z,5.25
2023-04-26T00:41:58.984Z,4.97
2023-04-26T00:42:32.266Z,4.50
2023-04-26T00:43:06.382Z,4.80
2023-04-26T00:43:40.566Z,4.88
2023-04-26T00:44:13.746Z,5.13
2023-04-26T00:44:46.928Z,5.28
2023-04-26T00:45:19.904Z,5.38
2023-04-26T00:45:53.660Z,5.07
2023-04-26T00:46:29.372Z,4.80
2023-04-26T00:47:02.917Z,5.22
2023-04-26T00:47:36.936Z,5.07
2023-04-26T00:48:10.037Z,5.20
2023-04-26T00:48:43.075Z,4.72
2023-04-26T00:49:19.822Z,5.32
2023-04-26T00:49:53.814Z,5.47
2023-04-26T00:50:26.993Z,5.13
2023-04-26T00:51:00.380Z,4.70
2023-04-26T00:51:33.552Z,5.15
2023-04-26T00:52:06.741Z,5.47
2023-04-26T00:52:40.245Z,5.57
2023-04-26T00:53:15.140Z,5.30
2023-04-26T00:53:49.435Z,4.70
2023-04-26T00:54:22.723Z,4.60
2023-04-26T00:54:56.924Z,5.43
2023-04-26T00:55:30.395Z,5.38
2023-04-26T00:56:03.941Z,5.15
2023-04-26T00:56:37.689Z,5.20
2023-04-26T00:57:11.684Z,4.78
2023-04-26T00:57:46.304Z,5.28
2023-04-26T00:58:19.570Z,5.20
2023-04-26T00:58:53.909Z,4.55
2023-04-26T00:59:27.571Z,4.43
2023-04-26T01:00:00.961Z,4.82
2023-04-26T01:00:34.637Z,4.55
2023-04-26T01:01:08.801Z,5.25
2023-04-26T01:01:43.446Z,4.93
2023-04-26T01:02:18.063Z,4.85
2023-04-26T01:02:51.832Z,4.80
2023-04-26T01:03:25.643Z,5.13
2023-04-26T01:03:59.310Z,5.15
2023-04-26T01:04:33.847Z,4.50
2023-04-26T01:05:08.256Z,5.13
2023-04-26T01:05:42.863Z,4.80
2023-04-26T01:06:16.969Z,4.93
2023-04-26T01:06:50.040Z,5.00
2023-04-26T01:07:23.732Z,4.90
2023-04-26T01:07:57.142Z,4.20
2023-04-26T01:08:30.593Z,4.45
2023-04-26T01:09:05.615Z,4.38
2023-04-26T01:09:38.799Z,4.32
2023-04-26T01:10:12.489Z,4.60
2023-04-26T01:10:45.871Z,4.27
2023-04-26T01:11:21.513Z,4.28
2023-04-26T01:11:57.237Z,4.53
2023-04-26T01:12:30.432Z,4.75
2023-04-26T01:13:04.631Z,4.47
2023-04-26T01:13:38.826Z,4.63
2023-04-26T01:14:12.206Z,4.30
2023-04-26T01:14:45.899Z,4.40
2023-04-26T01:15:19.286Z,4.43
2023-04-26T01:15:52.764Z,4.57
2023-04-26T01:16:26.476Z,4.20
2023-04-26T01:17:00.308Z,4.40
2023-04-26T01:17:34.252Z,4.50
2023-04-26T01:18:07.856Z,4.63
2023-04-26T01:18:41.832Z,4.70
2023-04-26T01:19:15.719Z,4.72
2023-04-26T01:19:49.711Z,4.45
2023-04-26T01:20:22.996Z,4.45
2023-04-26T01:20:57.405Z,4.68
2023-04-26T01:21:30.580Z,4.18
2023-04-26T01:22:04.710Z,4.80
2023-04-26T01:22:37.869Z,4.72
2023-04-26T01:23:11.959Z,4.85
2023-04-26T01:23:45.235Z,4.28
2023-04-26T01:24:18.414Z,4.75
2023-04-26T01:24:52.320Z,4.00
2023-04-26T01:25:25.489Z,4.78
2023-04-26T01:26:00.304Z,3.90
2023-04-26T01:26:33.686Z,4.30
2023-04-26T01:27:07.494Z,4.13
2023-04-26T01:27:40.966Z,4.73
2023-04-26T01:28:14.141Z,4.95
2023-04-26T01:28:47.421Z,4.25
2023-04-26T01:29:21.858Z,4.43
2023-04-26T01:29:55.214Z,4.45
2023-04-26T01:30:29.722Z,4.43
2023-04-26T01:31:03.029Z,4.63
2023-04-26T01:31:37.239Z,4.85
2023-04-26T01:32:10.484Z,4.47
2023-04-26T01:32:43.585Z,4.68
2023-04-26T01:33:16.840Z,4.67
2023-04-26T01:33:50.632Z,4.43
2023-04-26T01:34:25.749Z,4.70
2023-04-26T01:34:58.827Z,4.50
2023-04-26T01:35:32.000Z,4.63
2023-04-26T01:36:09.181Z,4.50
2023-04-26T01:36:42.941Z,4.80
2023-04-26T01:37:16.354Z,4.45
2023-04-26T01:37:49.629Z,4.72
2023-04-26T01:38:22.609Z,4.10
2023-04-26T01:38:55.881Z,4.50
2023-04-26T01:39:28.962Z,4.78
2023-04-26T01:40:02.268Z,4.35
2023-04-26T01:40:35.531Z,4.97
2023-04-26T01:41:12.393Z,4.70
2023-04-26T01:41:45.461Z,4.10
2023-04-26T01:42:18.968Z,4.60
2023-04-26T01:42:52.428Z,4.50
2023-04-26T01:43:26.734Z,4.57
2023-04-26T01:44:00.029Z,4.32
2023-04-26T01:44:33.402Z,4.00
2023-04-26T01:45:07.911Z,4.65
2023-04-26T01:45:59.505Z,4.07
2023-04-26T01:46:36.500Z,4.55
2023-04-26T01:47:10.785Z,4.35
2023-04-26T01:47:44.101Z,4.25
2023-04-26T01:48:17.351Z,4.40
2023-04-26T01:48:50.584Z,4.28
2023-04-26T01:49:24.004Z,4.30
2023-04-26T01:49:57.285Z,4.32
2023-04-26T01:50:30.565Z,4.37
2023-04-26T01:51:03.848Z,4.15
2023-04-26T01:51:37.535Z,4.45
2023-04-26T01:52:13.482Z,4.53
2023-04-26T01:52:46.964Z,4.40
2023-04-26T01:53:20.140Z,4.45
2023-04-26T01:53:53.422Z,4.30
2023-04-26T01:54:26.505Z,4.68
2023-04-26T01:54:59.574Z,4.18
2023-04-26T01:55:34.386Z,4.30
2023-04-26T01:56:07.779Z,4.37
2023-04-26T01:56:40.951Z,4.22
2023-04-26T01:57:14.135Z,4.75
2023-04-26T01:57:47.405Z,4.55
2023-04-26T01:58:20.386Z,4.22
2023-04-26T01:58:59.600Z,4.13
2023-04-26T01:59:32.794Z,4.40
2023-04-26T02:00:06.367Z,4.55
2023-04-26T02:00:47.016Z,4.65
2023-04-26T02:01:20.214Z,4.45
2023-04-26T02:01:53.294Z,4.33
2023-04-26T02:02:27.087Z,4.53
2023-04-26T02:03:00.599Z,4.35
2023-04-26T02:03:33.670Z,4.75
2023-04-26T02:04:07.104Z,4.93
2023-04-26T02:04:40.253Z,4.18
2023-04-26T02:05:13.588Z,4.50
2023-04-26T02:05:47.160Z,4.43
2023-04-26T02:06:20.539Z,4.50
2023-04-26T02:06:53.812Z,4.35
2023-04-26T02:07:27.199Z,5.00
2023-04-26T02:08:02.730Z,4.10
2023-04-26T02:08:36.521Z,4.32
2023-04-26T02:09:10.216Z,4.55
2023-04-26T02:09:47.092Z,5.03
2023-04-26T02:10:20.267Z,5.20
2023-04-26T02:10:53.536Z,4.20
2023-04-26T02:11:27.442Z,4.75
2023-04-26T02:12:00.630Z,4.95
2023-04-26T02:12:33.893Z,4.40
2023-04-26T02:13:08.714Z,4.23
2023-04-26T02:13:41.984Z,4.88
2023-04-26T02:14:16.194Z,4.93
2023-04-26T02:14:49.474Z,5.10
2023-04-26T02:15:22.857Z,5.10
2023-04-26T02:15:56.357Z,5.07
2023-04-26T02:16:29.831Z,4.53
2023-04-26T02:17:04.331Z,4.78
2023-04-26T02:17:38.371Z,5.03
2023-04-26T02:18:11.948Z,4.55
2023-04-26T02:18:45.444Z,4.87
2023-04-26T02:19:18.472Z,4.72
2023-04-26T02:19:51.861Z,4.78
2023-04-26T02:20:25.443Z,5.07
2023-04-26T02:21:00.573Z,5.25
2023-04-26T02:21:34.365Z,4.70
2023-04-26T02:22:08.582Z,4.68
2023-04-26T02:22:41.792Z,4.70
2023-04-26T02:23:15.329Z,4.72
2023-04-26T02:23:49.531Z,4.63
2023-04-26T02:24:23.761Z,4.63
2023-04-26T02:24:57.123Z,4.80
2023-04-26T02:25:36.038Z,5.30
2023-04-26T02:26:09.102Z,5.32
2023-04-26T02:26:42.481Z,4.47
2023-04-26T02:27:15.765Z,5.18
2023-04-26T02:27:49.151Z,4.93
2023-04-26T02:28:22.324Z,5.00
2023-04-26T02:28:55.708Z,4.80
2023-04-26T02:29:43.148Z,4.70
2023-04-26T02:30:17.118Z,4.77
2023-04-26T02:30:50.295Z,4.57
2023-04-26T02:31:24.977Z,4.55
2023-04-26T02:31:58.765Z,5.75
2023-04-26T02:32:32.070Z,5.00
2023-04-26T02:33:05.602Z,4.53
2023-04-26T02:33:39.253Z,4.93
2023-04-26T02:34:12.950Z,5.22
2023-04-26T02:34:46.534Z,5.03
2023-04-26T02:35:20.222Z,4.68
2023-04-26T02:35:53.519Z,5.20
2023-04-26T02:36:27.805Z,4.60
2023-04-26T02:37:02.216Z,5.25
2023-04-26T02:37:35.709Z,4.82
2023-04-26T02:38:08.887Z,4.53
2023-04-26T02:38:42.364Z,4.35
2023-04-26T02:39:15.538Z,4.72
2023-04-26T02:39:52.312Z,4.50
2023-04-26T02:40:25.480Z,4.88
2023-04-26T02:41:00.010Z,4.22
2023-04-26T02:41:33.788Z,4.83
2023-04-26T02:42:11.154Z,4.30
2023-04-26T02:42:44.540Z,4.78
2023-04-26T02:43:17.723Z,5.18
2023-04-26T02:43:50.789Z,4.45
2023-04-26T02:44:24.069Z,4.35
2023-04-26T02:44:57.360Z,4.68
2023-04-26T02:45:30.833Z,4.43
2023-04-26T02:46:07.495Z,4.93
2023-04-26T02:46:41.021Z,4.22
2023-04-26T02:47:14.469Z,4.33
2023-04-26T02:47:47.682Z,4.80
2023-04-26T02:48:21.233Z,4.78
2023-04-26T02:48:54.819Z,5.15
2023-04-26T02:49:28.514Z,4.80
2023-04-26T02:50:01.711Z,4.78
2023-04-26T02:50:36.515Z,4.90
2023-04-26T02:51:10.704Z,4.57
2023-04-26T02:51:44.398Z,4.57
2023-04-26T02:52:17.887Z,4.30
2023-04-26T02:52:51.366Z,4.80
2023-04-26T02:53:24.642Z,4.30
2023-04-26T02:53:57.718Z,5.13
2023-04-26T02:54:31.404Z,5.05
2023-04-26T02:55:05.437Z,5.20
2023-04-26T02:55:39.508Z,5.43
2023-04-26T02:56:12.684Z,5.85
2023-04-26T02:56:45.755Z,4.95
2023-04-26T02:57:19.035Z,5.95
2023-04-26T02:57:52.109Z,4.93
2023-04-26T02:58:25.697Z,5.13
2023-04-26T02:58:58.977Z,5.15
2023-04-26T02:59:32.977Z,5.15
2023-04-26T03:00:08.407Z,5.30
2023-04-26T03:00:46.730Z,5.38
2023-04-26T03:01:20.533Z,4.90
2023-04-26T03:01:53.703Z,5.18
2023-04-26T03:02:27.540Z,4.80
2023-04-26T03:03:00.931Z,4.88
2023-04-26T03:03:34.506Z,4.90
2023-04-26T03:04:08.300Z,5.23
2023-04-26T03:04:43.049Z,5.10
2023-04-26T03:05:16.535Z,5.40
2023-04-26T03:05:49.605Z,5.30
2023-04-26T03:06:22.788Z,5.32
2023-04-26T03:06:56.062Z,5.35
2023-04-26T03:07:29.344Z,5.47
2023-04-26T03:08:02.420Z,4.95
2023-04-26T03:08:37.152Z,5.40
2023-04-26T03:09:10.409Z,5.03
2023-04-26T03:09:43.797Z,5.57
2023-04-26T03:10:16.868Z,5.00
2023-04-26T03:10:50.310Z,5.72
2023-04-26T03:11:23.531Z,5.10
2023-04-26T03:11:56.933Z,5.43
2023-04-26T03:12:30.195Z,5.72
2023-04-26T03:13:04.404Z,5.05
2023-04-26T03:13:38.082Z,5.93
2023-04-26T03:14:12.089Z,5.72
2023-04-26T03:14:45.672Z,5.25
2023-04-26T03:15:19.158Z,5.20
2023-04-26T03:15:53.972Z,5.05
2023-04-26T03:16:28.441Z,5.20
2023-04-26T03:17:02.262Z,5.43
2023-04-26T03:17:38.338Z,4.93
2023-04-26T03:18:11.596Z,5.13
2023-04-26T03:18:44.675Z,5.72
2023-04-26T03:19:17.751Z,5.32
2023-04-26T03:19:51.641Z,5.28
2023-04-26T03:20:25.644Z,5.38
2023-04-26T03:20:58.823Z,5.70
2023-04-26T03:21:32.408Z,5.03
2023-04-26T03:22:05.484Z,5.55
2023-04-26T03:22:38.971Z,5.63
2023-04-26T03:23:12.347Z,5.90
2023-04-26T03:23:45.733Z,5.70
2023-04-26T03:24:19.839Z,5.47
2023-04-26T03:24:53.113Z,5.53
2023-04-26T03:25:26.594Z,5.43
2023-04-26T03:25:59.880Z,4.82
2023-04-26T03:26:33.054Z,5.00
2023-04-26T03:27:06.441Z,5.75
2023-04-26T03:27:39.717Z,5.97
2023-04-26T03:28:12.797Z,5.50
2023-04-26T03:28:46.078Z,5.50
2023-04-26T03:29:19.353Z,6.20
2023-04-26T03:29:52.633Z,5.75
2023-04-26T03:30:26.427Z,6.00
2023-04-26T03:30:59.911Z,6.00
2023-04-26T03:31:33.109Z,5.60
2023-04-26T03:32:07.938Z,6.33
2023-04-26T03:32:41.229Z,6.20
2023-04-26T03:33:14.482Z,5.68
2023-04-26T03:33:47.848Z,5.57
2023-04-26T03:34:21.337Z,5.80
2023-04-26T03:34:54.657Z,6.05
2023-04-26T03:35:27.695Z,5.57
2023-04-26T03:36:00.787Z,5.50
2023-04-26T03:36:35.076Z,5.65
2023-04-26T03:37:10.398Z,5.95
2023-04-26T03:37:45.213Z,5.77
2023-04-26T03:43:38.809Z,6.65
2023-04-26T03:44:13.015Z,6.65
2023-04-26T03:44:46.437Z,6.20
2023-04-26T03:45:20.291Z,6.55
2023-04-26T03:45:53.562Z,6.97
2023-04-26T03:46:27.048Z,6.70
2023-04-26T03:47:00.426Z,6.25
2023-04-26T03:47:33.540Z,6.83
2023-04-26T03:48:06.941Z,6.40
2023-04-26T03:48:40.480Z,6.00
2023-04-26T03:49:13.654Z,6.57
2023-04-26T03:49:46.830Z,6.60
2023-04-26T03:50:21.346Z,6.30
2023-04-26T03:50:54.540Z,6.15
2023-04-26T03:51:28.828Z,6.20
2023-04-26T03:52:01.906Z,6.28
2023-04-26T03:52:35.078Z,6.68
2023-04-26T03:53:09.381Z,6.20
2023-04-26T03:53:42.765Z,7.13
2023-04-26T03:54:16.250Z,6.50
2023-04-26T03:54:49.424Z,7.25
2023-04-26T03:55:23.627Z,6.65
2023-04-26T03:55:58.645Z,6.78
2023-04-26T03:56:32.034Z,6.30
2023-04-26T03:57:05.818Z,6.90
2023-04-26T03:57:39.134Z,6.55
2023-04-26T03:58:12.993Z,6.63
2023-04-26T03:58:47.196Z,6.83
2023-04-26T03:59:20.885Z,6.20
2023-04-26T03:59:54.471Z,6.75
2023-04-26T04:00:27.653Z,7.20
2023-04-26T04:01:01.361Z,6.70
2023-04-26T04:01:35.033Z,6.03
2023-04-26T04:02:08.039Z,7.00
2023-04-26T04:02:42.368Z,6.85
2023-04-26T04:03:19.202Z,6.60
2023-04-26T04:03:52.746Z,6.07
2023-04-26T04:04:26.688Z,5.80
2023-04-26T04:05:00.619Z,6.13
2023-04-26T04:05:34.203Z,6.05
2023-04-26T04:06:07.620Z,6.43
2023-04-26T04:06:41.004Z,6.07
2023-04-26T04:07:14.285Z,6.40
2023-04-26T04:07:47.462Z,6.10
2023-04-26T04:08:20.768Z,6.25
2023-04-26T04:08:54.059Z,6.50
2023-04-26T04:09:28.430Z,6.50
2023-04-26T04:10:02.023Z,6.57
2023-04-26T04:10:38.626Z,7.55
2023-04-26T04:11:12.159Z,6.60
2023-04-26T04:11:47.464Z,6.82
2023-04-26T04:12:20.977Z,6.28
2023-04-26T04:12:54.566Z,6.72
2023-04-26T04:13:28.151Z,6.38
2023-04-26T04:14:01.527Z,6.78
2023-04-26T04:14:34.912Z,7.30
2023-04-26T04:15:09.013Z,6.88
2023-04-26T04:15:44.465Z,7.60
2023-04-26T04:16:17.944Z,7.13
2023-04-26T04:16:51.313Z,6.75
2023-04-26T04:17:24.588Z,7.30
2023-04-26T04:17:58.092Z,7.15
2023-04-26T04:18:31.564Z,7.18
2023-04-26T04:19:05.669Z,7.13
2023-04-26T04:19:39.244Z,7.97
2023-04-26T04:20:12.421Z,7.68
2023-04-26T04:20:46.528Z,6.90
2023-04-26T04:21:19.598Z,7.73
2023-04-26T04:21:52.778Z,8.07
2023-04-26T04:22:25.854Z,8.27
2023-04-26T04:23:04.876Z,7.50
2023-04-26T04:23:38.147Z,7.75
2023-04-26T04:24:14.882Z,7.38
2023-04-26T04:24:48.394Z,7.90
2023-04-26T04:25:22.908Z,7.82
2023-04-26T04:25:56.704Z,7.82
2023-04-26T04:26:29.874Z,7.05
2023-04-26T04:27:03.970Z,8.20
2023-04-26T04:27:38.611Z,6.85
2023-04-26T04:28:12.685Z,5.90
2023-04-26T04:28:47.705Z,7.43
2023-04-26T04:29:20.981Z,7.18
2023-04-26T04:29:56.938Z,6.80
2023-04-26T04:30:31.233Z,7.45
2023-04-26T04:31:04.747Z,7.80
2023-04-26T04:31:38.226Z,7.60
2023-04-26T04:32:11.886Z,7.82
2023-04-26T04:32:45.625Z,8.30
2023-04-26T04:33:20.602Z,7.65
2023-04-26T04:33:53.674Z,7.43
2023-04-26T04:34:26.853Z,7.78
2023-04-26T04:35:00.644Z,7.40
2023-04-26T04:35:34.545Z,7.45
2023-04-26T04:36:10.178Z,8.00
2023-04-26T04:36:43.871Z,6.80
2023-04-26T04:37:17.557Z,7.50
2023-04-26T04:37:50.644Z,7.13
2023-04-26T04:38:24.019Z,5.43
2023-04-26T04:38:58.737Z,6.55
2023-04-26T04:39:32.830Z,6.65
2023-04-26T04:40:06.221Z,7.50
2023-04-26T04:40:41.741Z,7.30
2023-04-26T04:41:15.028Z,6.93
2023-04-26T04:41:48.830Z,7.70
2023-04-26T04:42:23.946Z,7.40
2023-04-26T04:42:57.111Z,8.02
2023-04-26T04:43:32.137Z,7.18
2023-04-26T04:44:05.226Z,7.63
2023-04-26T04:44:40.446Z,7.35
2023-04-26T04:45:13.714Z,7.75
2023-04-26T04:45:47.000Z,7.68
2023-04-26T04:46:19.987Z,7.78
2023-04-26T04:46:53.614Z,7.18
2023-04-26T04:47:27.378Z,7.60
2023-04-26T04:48:00.765Z,7.90
2023-04-26T04:48:34.121Z,8.07
2023-04-26T04:49:10.370Z,7.93
2023-04-26T04:49:43.984Z,7.47
2023-04-26T04:50:17.339Z,7.28
2023-04-26T04:50:51.258Z,7.28
2023-04-26T04:51:24.613Z,7.85
2023-04-26T04:51:58.000Z,8.05
2023-04-26T04:52:33.633Z,8.48
2023-04-26T04:53:06.606Z,8.35
2023-04-26T04:53:39.988Z,7.75
2023-04-26T04:54:13.788Z,8.18
2023-04-26T04:54:47.163Z,8.10
2023-04-26T04:55:21.672Z,7.33
2023-04-26T04:55:54.854Z,9.48
2023-04-26T04:56:28.540Z,8.68
2023-04-26T04:57:02.329Z,8.38
2023-04-26T04:57:36.345Z,10.05
2023-04-26T04:58:10.326Z,10.13
2023-04-26T04:58:43.710Z,10.63
2023-04-26T04:59:17.273Z,8.02
2023-04-26T04:59:50.472Z,7.85
2023-04-26T05:00:23.960Z,7.30
2023-04-26T05:01:07.582Z,7.70
2023-04-26T05:01:56.991Z,6.90
2023-04-26T05:02:30.431Z,7.10
2023-04-26T05:03:04.512Z,6.75
2023-04-26T05:03:37.977Z,6.35
2023-04-26T05:04:11.493Z,7.10
2023-04-26T05:04:45.180Z,7.03
2023-04-26T05:05:18.672Z,7.43
2023-04-26T05:05:52.154Z,7.40
2023-04-26T05:06:25.943Z,6.57
2023-04-26T05:06:59.429Z,7.63
2023-04-26T05:07:32.925Z,7.20
2023-04-26T05:08:08.364Z,6.88
2023-04-26T05:08:42.033Z,6.75
2023-04-26T05:09:16.235Z,7.80
2023-04-26T05:09:49.309Z,7.72
2023-04-26T05:10:22.794Z,7.40
2023-04-26T05:10:57.311Z,7.45
2023-04-26T05:11:30.590Z,7.53
2023-04-26T05:12:04.683Z,6.55
2023-04-26T05:12:37.899Z,6.20
2023-04-26T05:13:11.144Z,6.63
2023-04-26T05:13:45.243Z,6.90
2023-04-26T05:14:18.419Z,8.18
2023-04-26T05:14:51.499Z,6.50
2023-04-26T05:15:24.574Z,7.28
2023-04-26T05:15:57.681Z,7.10
2023-04-26T05:16:31.057Z,6.97
2023-04-26T05:17:05.951Z,7.30
2023-04-26T05:17:39.717Z,7.40
2023-04-26T05:18:24.594Z,7.13
2023-04-26T05:18:57.778Z,6.97
2023-04-26T05:19:30.844Z,7.03
2023-04-26T05:20:07.712Z,7.63
2023-04-26T05:20:42.021Z,6.45
2023-04-26T05:21:16.344Z,7.18
2023-04-26T05:21:50.109Z,8.23
2023-04-26T05:22:23.496Z,7.63
2023-04-26T05:22:56.980Z,7.35
2023-04-26T05:23:30.372Z,7.88
2023-04-26T05:24:03.960Z,8.43
2023-04-26T05:24:37.128Z,8.00
2023-04-26T05:25:11.228Z,7.55
2023-04-26T05:25:44.919Z,7.38
2023-04-26T05:26:47.588Z,6.93
2023-04-26T05:27:46.674Z,6.32
2023-04-26T05:28:32.030Z,6.90
2023-04-26T05:29:19.968Z,7.50
2023-04-26T05:30:06.559Z,7.20
2023-04-26T05:30:51.712Z,7.05
2023-04-26T05:31:32.002Z,7.73
2023-04-26T05:32:13.952Z,6.82
2023-04-26T05:32:47.140Z,6.15
2023-04-26T05:33:25.112Z,6.97
2023-04-26T05:34:02.821Z,5.80
2023-04-26T05:34:42.111Z,7.03
2023-04-26T05:35:18.875Z,7.05
2023-04-26T05:35:53.382Z,6.85
2023-04-26T05:36:29.664Z,7.70
2023-04-26T05:37:04.143Z,7.55
2023-04-26T05:37:37.424Z,7.87
2023-04-26T05:38:10.492Z,7.38
2023-04-26T05:38:43.783Z,8.00
2023-04-26T05:39:17.361Z,7.47
2023-04-26T05:39:50.645Z,8.55
2023-04-26T05:40:24.023Z,8.30
2023-04-26T05:40:57.406Z,7.05
2023-04-26T05:41:30.681Z,8.07
2023-04-26T05:42:04.384Z,9.45
2023-04-26T05:42:38.277Z,7.55
2023-04-26T05:43:12.985Z,7.13
2023-04-26T05:43:48.109Z,6.88
2023-04-26T05:44:21.387Z,6.45
2023-04-26T05:44:58.566Z,7.68
2023-04-26T05:45:31.860Z,7.00
2023-04-26T05:46:06.581Z,6.72
2023-04-26T05:46:39.835Z,8.25
2023-04-26T05:47:14.968Z,11.38
2023-04-26T05:47:48.802Z,9.07
2023-04-26T05:48:25.523Z,8.50
2023-04-26T05:48:58.602Z,7.47
2023-04-26T05:49:31.775Z,6.60
2023-04-26T05:50:05.146Z,8.45
2023-04-26T05:50:40.086Z,8.52
2023-04-26T05:51:13.658Z,7.43
2023-04-26T05:51:46.728Z,6.80
2023-04-26T05:52:20.008Z,7.20
2023-04-26T05:52:53.196Z,7.15
2023-04-26T05:53:26.469Z,7.72
2023-04-26T05:53:59.747Z,7.10
2023-04-26T05:54:33.953Z,7.33
2023-04-26T05:55:07.652Z,7.40
2023-04-26T05:55:42.661Z,7.35
2023-04-26T05:56:15.738Z,6.97
2023-04-26T05:56:49.039Z,6.72
2023-04-26T05:57:22.754Z,6.68
2023-04-26T05:57:56.150Z,6.72
2023-04-26T05:58:29.261Z,5.47
2023-04-26T05:59:02.545Z,7.43
2023-04-26T05:59:37.154Z,6.93
2023-04-26T06:00:11.878Z,7.40
2023-04-26T06:00:48.328Z,5.22
2023-04-26T06:01:21.603Z,6.50
2023-04-26T06:01:56.302Z,6.88
2023-04-26T06:02:30.416Z,7.10
2023-04-26T06:03:04.360Z,6.72
2023-04-26T06:03:37.977Z,6.60
2023-04-26T06:04:11.628Z,7.03
2023-04-26T06:05:02.130Z,7.30
2023-04-26T06:05:38.450Z,7.15
2023-04-26T06:06:12.217Z,7.30
2023-04-26T06:06:47.131Z,6.90
2023-04-26T06:07:20.550Z,6.68
2023-04-26T06:07:54.102Z,7.18
2023-04-26T06:08:28.933Z,7.65
2023-04-26T06:09:02.315Z,6.97
2023-04-26T06:09:35.479Z,7.70
2023-04-26T06:10:09.784Z,6.18
2023-04-26T06:10:43.061Z,6.15
2023-04-26T06:11:16.352Z,6.47
2023-04-26T06:11:49.640Z,6.93
2023-04-26T06:12:23.008Z,6.53
2023-04-26T06:12:57.519Z,6.93
2023-04-26T06:13:33.257Z,7.25
2023-04-26T06:14:07.829Z,6.90
2023-04-26T06:14:45.144Z,6.80
2023-04-26T06:15:22.716Z,6.65
2023-04-26T06:15:56.005Z,6.20
2023-04-26T06:16:29.439Z,6.70
2023-04-26T06:17:02.594Z,6.88
2023-04-26T06:17:36.504Z,7.47
2023-04-26T06:18:09.795Z,6.28
2023-04-26T06:18:43.041Z,6.15
2023-04-26T06:19:16.497Z,7.03
2023-04-26T06:19:49.788Z,6.43
2023-04-26T06:20:23.162Z,6.03
2023-04-26T06:20:56.339Z,6.20
2023-04-26T06:21:29.419Z,5.63
2023-04-26T06:22:02.597Z,6.53
2023-04-26T06:22:35.972Z,5.90
2023-04-26T06:23:09.052Z,6.10
2023-04-26T06:23:42.234Z,6.97
2023-04-26T06:24:16.531Z,6.57
2023-04-26T06:24:49.814Z,6.10
2023-04-26T06:25:23.404Z,5.57
2023-04-26T06:25:56.580Z,6.53
2023-04-26T06:26:29.552Z,6.93
2023-04-26T06:27:02.833Z,5.93
2023-04-26T06:27:36.520Z,5.85
2023-04-26T06:28:09.802Z,5.95
2023-04-26T06:28:43.284Z,5.60
2023-04-26T06:29:16.466Z,5.75
2023-04-26T06:29:49.846Z,5.30
2023-04-26T06:30:23.540Z,5.00
2023-04-26T06:30:56.647Z,4.82
2023-04-26T06:31:30.917Z,5.07
2023-04-26T06:32:05.017Z,5.32
2023-04-26T06:32:39.960Z,5.85
2023-04-26T06:33:13.213Z,5.00
2023-04-26T06:33:46.299Z,4.57
2023-04-26T06:34:19.472Z,4.70
2023-04-26T06:34:53.055Z,5.18
2023-04-26T06:35:27.360Z,5.55
2023-04-26T06:36:01.117Z,4.47
2023-04-26T06:36:34.746Z,4.55
2023-04-26T06:37:08.073Z,4.50
2023-04-26T06:37:44.371Z,4.38
2023-04-26T06:38:18.067Z,4.20
2023-04-26T06:38:51.449Z,4.45
2023-04-26T06:39:24.623Z,4.60
2023-04-26T06:39:58.113Z,4.10
2023-04-26T06:40:32.003Z,3.75
2023-04-26T06:41:05.388Z,4.25
2023-04-26T06:41:39.175Z,4.93
2023-04-26T06:42:12.643Z,4.72
2023-04-26T06:43:03.967Z,4.57
2023-04-26T06:43:52.218Z,4.18
2023-04-26T06:44:27.114Z,4.10
2023-04-26T06:45:08.179Z,4.55
2023-04-26T06:45:43.307Z,4.22
2023-04-26T06:46:18.239Z,4.20
2023-04-26T06:46:57.130Z,4.47
2023-04-26T06:47:30.751Z,4.28
2023-04-26T06:48:05.309Z,4.78
2023-04-26T06:48:39.870Z,4.38
2023-04-26T06:49:13.049Z,4.28
2023-04-26T06:49:46.504Z,4.45
2023-04-26T06:50:19.795Z,4.68
2023-04-26T06:50:53.574Z,4.78
2023-04-26T06:51:27.377Z,4.43
2023-04-26T06:52:01.405Z,4.60
2023-04-26T06:52:34.677Z,4.22
2023-04-26T06:53:08.442Z,4.60
2023-04-26T06:53:42.227Z,4.40
2023-04-26T06:54:15.205Z,4.20
2023-04-26T06:54:56.562Z,4.00
2023-04-26T06:55:30.479Z,4.22
2023-04-26T06:56:03.952Z,3.78
2023-04-26T06:56:38.070Z,3.95
2023-04-26T06:57:11.432Z,3.85
2023-04-26T06:57:44.510Z,4.60
2023-04-26T06:58:17.380Z,4.15
2023-04-26T06:59:03.790Z,4.40
2023-04-26T06:59:37.266Z,4.55
2023-04-26T07:00:11.179Z,4.20
2023-04-26T07:00:44.435Z,3.92
2023-04-26T07:01:18.037Z,4.28
2023-04-26T07:01:51.121Z,3.90
2023-04-26T07:02:25.209Z,4.15
2023-04-26T07:02:58.441Z,4.10
2023-04-26T07:03:32.067Z,4.17
2023-04-26T07:04:08.686Z,3.72
2023-04-26T07:04:41.937Z,4.28
2023-04-26T07:05:16.000Z,4.25
2023-04-26T07:05:49.065Z,4.10
2023-04-26T07:06:22.880Z,4.57
2023-04-26T07:06:57.168Z,4.00
2023-04-26T07:07:30.445Z,4.18
2023-04-26T07:08:04.232Z,4.03
2023-04-26T07:08:37.824Z,3.97
2023-04-26T07:09:11.110Z,4.00
2023-04-26T07:09:44.689Z,3.70
2023-04-26T07:10:18.070Z,3.97
2023-04-26T07:10:52.176Z,3.60
2023-04-26T07:11:26.279Z,4.30
2023-04-26T07:11:59.454Z,3.40
2023-04-26T07:12:32.630Z,4.15
2023-04-26T07:13:07.323Z,3.80
2023-04-26T07:13:41.861Z,3.80
2023-04-26T07:14:15.131Z,3.92
2023-04-26T07:14:48.210Z,4.07
2023-04-26T07:15:21.393Z,3.65
2023-04-26T07:15:55.014Z,3.70
2023-04-26T07:16:28.378Z,4.20
2023-04-26T07:17:01.643Z,4.13
2023-04-26T07:17:34.959Z,4.10
2023-04-26T07:18:08.544Z,3.80
2023-04-26T07:18:42.501Z,3.47
2023-04-26T07:19:15.478Z,3.60
2023-04-26T07:19:48.758Z,3.63
2023-04-26T07:20:23.668Z,3.80
2023-04-26T07:20:56.645Z,4.15
2023-04-26T07:21:29.719Z,4.45
2023-04-26T07:22:03.078Z,3.97
2023-04-26T07:22:36.387Z,4.03
2023-04-26T07:23:09.462Z,4.10
2023-04-26T07:23:42.740Z,4.10
2023-04-26T07:24:15.913Z,3.78
2023-04-26T07:24:48.894Z,3.90
2023-04-26T07:25:21.861Z,3.75
2023-04-26T07:25:55.732Z,3.93
2023-04-26T07:26:30.267Z,4.15
2023-04-26T07:27:04.060Z,3.97
2023-04-26T07:27:37.245Z,4.28
2023-04-26T07:28:10.313Z,3.63
2023-04-26T07:28:43.590Z,3.92
2023-04-26T07:29:17.118Z,3.70
2023-04-26T07:29:53.841Z,3.63
2023-04-26T07:30:27.327Z,5.00
2023-04-26T07:31:02.040Z,4.13
2023-04-26T07:31:35.119Z,3.97
2023-04-26T07:32:08.421Z,4.10
2023-04-26T07:32:42.084Z,4.95
2023-04-26T07:33:15.555Z,4.30
2023-04-26T07:33:49.087Z,3.75
2023-04-26T07:34:22.336Z,4.32
2023-04-26T07:34:55.721Z,4.07
2023-04-26T07:35:29.307Z,3.55
2023-04-26T07:36:02.679Z,3.90
2023-04-26T07:36:36.074Z,3.60
2023-04-26T07:37:09.652Z,4.17
2023-04-26T07:37:43.961Z,3.97
2023-04-26T07:38:20.204Z,3.30
2023-04-26T07:38:53.283Z,4.80
2023-04-26T07:39:26.474Z,4.20
2023-04-26T07:40:00.460Z,4.15